Time;durP1;ratioP1;P1;durP2;ratioP2;P2;SDS_P1;SDS_P2;PMS_P1;PMS_P2;Temp;Humidity;BMP_temperature;BMP_pressure;BME280_temperature;BME280_humidity;BME280_pressure;Samples;Min_cycle;Max_cycle;Signal;HPM_P1;HPM_P2
2022/05/30 00:02:02;;;;;;;6.03;1.30;;;10.10;99.90;;;;;;5075717;28;20045;-82
2022/05/30 00:04:28;;;;;;;5.47;1.20;;;10.10;99.90;;;;;;5075701;28;20075;-82
2022/05/30 00:06:54;;;;;;;6.03;1.55;;;10.00;99.90;;;;;;5074299;28;20088;-82
2022/05/30 00:09:19;;;;;;;4.10;1.25;;;10.00;99.90;;;;;;5074448;28;20559;-82
2022/05/30 00:11:45;;;;;;;5.32;1.08;;;10.00;99.90;;;;;;5075516;28;20127;-82
2022/05/30 00:14:10;;;;;;;3.28;1.00;;;9.90;99.90;;;;;;5074419;28;20056;-82
2022/05/30 00:16:36;;;;;;;7.05;1.92;;;9.90;99.90;;;;;;5073933;28;20395;-82
2022/05/30 00:19:01;;;;;;;7.82;1.25;;;9.80;99.90;;;;;;5073995;28;20040;-82
2022/05/30 00:21:27;;;;;;;3.70;1.08;;;9.80;99.90;;;;;;5073936;28;20131;-82
2022/05/30 00:23:53;;;;;;;5.00;0.88;;;9.70;99.90;;;;;;5075258;28;20032;-82
2022/05/30 00:26:20;;;;;;;3.67;0.85;;;9.70;99.90;;;;;;5075071;28;20526;-82
2022/05/30 00:28:46;;;;;;;6.88;1.20;;;9.70;99.90;;;;;;5073397;28;20083;-82
2022/05/30 00:31:14;;;;;;;4.90;0.70;;;9.60;99.90;;;;;;5073173;28;20040;-82
2022/05/30 00:33:42;;;;;;;4.30;0.77;;;9.60;99.90;;;;;;5074891;28;20044;-82
2022/05/30 00:36:08;;;;;;;5.90;1.20;;;9.50;99.90;;;;;;5075050;28;20041;-82
2022/05/30 00:38:33;;;;;;;3.40;0.80;;;9.50;99.90;;;;;;5074973;28;20040;-82
2022/05/30 00:40:59;;;;;;;2.55;0.80;;;9.50;99.90;;;;;;5073639;28;20122;-82
2022/05/30 00:43:34;;;;;;;3.22;0.85;;;9.40;99.90;;;;;;5073878;28;20123;-82
2022/05/30 00:46:02;;;;;;;5.07;1.05;;;9.40;99.90;;;;;;5073548;28;20128;-82
2022/05/30 00:48:36;;;;;;;3.08;1.00;;;9.40;99.90;;;;;;5074628;28;20482;-84
2022/05/30 00:51:06;;;;;;;4.15;1.00;;;9.40;99.90;;;;;;5073685;28;20048;-84
2022/05/30 00:53:34;;;;;;;5.57;1.38;;;9.40;99.90;;;;;;5074548;28;20476;-84
2022/05/30 00:56:02;;;;;;;6.70;1.95;;;9.40;99.90;;;;;;5074307;28;20048;-84
2022/05/30 00:58:31;;;;;;;4.38;1.20;;;9.40;99.90;;;;;;5074397;28;20086;-85
2022/05/30 01:00:57;;;;;;;8.23;1.20;;;9.50;99.90;;;;;;5073137;28;20055;-87
2022/05/30 01:08:54;;;;;;;5.45;1.00;;;9.50;99.90;;;;;;5074188;28;20630;-85
2022/05/30 01:11:19;;;;;;;8.77;1.45;;;9.50;99.90;;;;;;5072910;28;20036;-85
2022/05/30 01:13:45;;;;;;;7.53;1.67;;;9.40;99.90;;;;;;5072943;28;20098;-85
2022/05/30 01:16:10;;;;;;;6.00;1.20;;;9.40;99.90;;;;;;5090092;28;20048;-85
2022/05/30 01:18:48;;;;;;;8.70;1.75;;;9.40;99.90;;;;;;5074144;28;20415;-85
2022/05/30 01:21:38;;;;;;;5.40;1.73;;;9.30;99.90;;;;;;5072761;28;20097;-85
2022/05/30 01:24:37;;;;;;;8.07;1.45;;;9.30;99.90;;;;;;5073062;28;20381;-85
2022/05/30 01:27:20;;;;;;;5.72;1.38;;;9.20;99.90;;;;;;5072799;28;20048;-85
2022/05/30 01:29:51;;;;;;;5.22;1.48;;;9.20;99.90;;;;;;5089857;28;20052;-85
2022/05/30 01:32:21;;;;;;;5.75;1.15;;;9.20;99.90;;;;;;5074023;28;20036;-85
2022/05/30 01:34:47;;;;;;;3.72;1.20;;;9.10;99.90;;;;;;5089575;28;20051;-85
2022/05/30 01:37:13;;;;;;;5.22;1.00;;;9.10;99.90;;;;;;5074046;28;20040;-85
2022/05/30 01:39:39;;;;;;;4.68;1.00;;;9.10;99.90;;;;;;5072354;28;20055;-85
2022/05/30 01:42:05;;;;;;;7.70;1.48;;;9.10;99.90;;;;;;5073373;28;20036;-86
2022/05/30 01:44:31;;;;;;;4.95;1.35;;;9.10;99.90;;;;;;5073670;28;20399;-86
2022/05/30 01:46:57;;;;;;;3.38;1.27;;;9.10;99.90;;;;;;5072484;28;20497;-86
2022/05/30 01:49:22;;;;;;;3.78;1.00;;;9.00;99.90;;;;;;5072473;28;20483;-87
2022/05/30 01:51:48;;;;;;;7.43;1.58;;;9.10;99.90;;;;;;5072267;28;20136;-86
2022/05/30 01:54:14;;;;;;;4.70;1.33;;;9.00;99.90;;;;;;5072691;28;20052;-86
2022/05/30 01:56:39;;;;;;;6.68;1.50;;;9.10;99.90;;;;;;5073484;28;20051;-86
2022/05/30 01:59:05;;;;;;;5.88;1.45;;;9.10;99.90;;;;;;5072568;28;20044;-86
2022/05/30 02:01:31;;;;;;;7.95;1.50;;;9.00;99.90;;;;;;5072380;28;20426;-86
2022/05/30 02:03:57;;;;;;;5.63;1.58;;;9.00;99.90;;;;;;5073682;28;20035;-84
2022/05/30 02:06:26;;;;;;;8.88;1.55;;;9.10;99.90;;;;;;5071964;28;20078;-85
2022/05/30 02:08:53;;;;;;;4.90;1.92;;;9.10;99.90;;;;;;5072089;28;20052;-86
2022/05/30 02:11:18;;;;;;;8.70;1.83;;;9.10;99.90;;;;;;5072437;28;20491;-86
2022/05/30 02:13:45;;;;;;;5.78;1.88;;;9.10;99.90;;;;;;5072451;28;20053;-86
2022/05/30 02:18:58;;;;;;;6.18;1.58;;;9.10;99.90;;;;;;5072269;28;20131;-86
2022/05/30 02:21:24;;;;;;;5.70;1.45;;;9.10;99.90;;;;;;5072278;28;20097;-85
2022/05/30 02:23:50;;;;;;;6.53;1.58;;;9.10;99.90;;;;;;5073441;28;20044;-85
2022/05/30 02:26:16;;;;;;;7.15;1.60;;;9.00;99.90;;;;;;5071992;28;20052;-86
2022/05/30 02:28:41;;;;;;;5.07;1.50;;;9.00;99.90;;;;;;5072055;28;20498;-85
2022/05/30 02:31:07;;;;;;;9.90;1.52;;;9.00;99.90;;;;;;5072125;28;20114;-86
2022/05/30 02:39:01;;;;;;;5.03;1.42;;;9.00;99.90;;;;;;5072235;28;20059;-85
2022/05/30 02:41:27;;;;;;;6.28;1.75;;;9.00;99.90;;;;;;5073348;28;20120;-85
2022/05/30 02:43:53;;;;;;;5.00;1.45;;;9.00;99.90;;;;;;5073306;28;20097;-86
2022/05/30 02:46:18;;;;;;;3.08;1.20;;;9.00;99.90;;;;;;5071872;28;20496;-85
2022/05/30 02:48:44;;;;;;;6.90;1.85;;;9.00;99.90;;;;;;5071805;28;20048;-85
2022/05/30 02:51:10;;;;;;;5.45;1.20;;;9.00;99.90;;;;;;5072535;28;20036;-86
2022/05/30 02:53:36;;;;;;;3.22;1.08;;;9.00;99.90;;;;;;5075531;28;20613;-86
2022/05/30 02:56:02;;;;;;;6.38;1.10;;;9.00;99.90;;;;;;5075566;28;20388;-86
2022/05/30 02:58:28;;;;;;;5.97;1.23;;;9.00;99.90;;;;;;5075577;28;20130;-86
2022/05/30 03:00:54;;;;;;;5.25;1.40;;;9.00;99.90;;;;;;5075817;28;20079;-86
2022/05/30 03:03:19;;;;;;;5.97;1.67;;;9.00;99.90;;;;;;5076598;28;20102;-86
2022/05/30 03:05:45;;;;;;;3.58;1.42;;;8.90;99.90;;;;;;5075113;28;20130;-85
2022/05/30 03:08:11;;;;;;;5.82;2.08;;;8.90;99.90;;;;;;5075593;28;20049;-86
2022/05/30 03:10:37;;;;;;;4.32;2.22;;;8.90;99.90;;;;;;5075160;28;20047;-86
2022/05/30 03:13:05;;;;;;;4.93;2.20;;;8.80;99.90;;;;;;5076221;28;20059;-85
2022/05/30 03:15:30;;;;;;;5.35;2.22;;;8.80;99.90;;;;;;5075356;28;20461;-85
2022/05/30 03:17:59;;;;;;;6.53;2.30;;;8.80;99.90;;;;;;5074605;28;20512;-85
2022/05/30 03:20:25;;;;;;;7.32;2.30;;;8.70;99.90;;;;;;5073879;28;20071;-85
2022/05/30 03:22:51;;;;;;;7.22;2.38;;;8.70;99.90;;;;;;5073680;28;20479;-85
2022/05/30 03:25:17;;;;;;;8.75;2.33;;;8.80;99.90;;;;;;5074861;28;20048;-85
2022/05/30 03:27:43;;;;;;;5.63;1.70;;;8.80;99.90;;;;;;5076123;28;20044;-86
2022/05/30 03:30:11;;;;;;;4.75;1.90;;;8.80;99.90;;;;;;5074973;28;20132;-85
2022/05/30 03:32:37;;;;;;;6.45;2.22;;;8.80;99.90;;;;;;5075047;28;20060;-85
2022/05/30 03:35:04;;;;;;;7.05;2.28;;;8.80;99.90;;;;;;5076104;28;20078;-85
2022/05/30 03:37:30;;;;;;;5.57;1.67;;;8.80;99.90;;;;;;5074986;28;20048;-86
2022/05/30 03:39:56;;;;;;;7.72;1.70;;;8.80;99.90;;;;;;5074924;28;20048;-87
2022/05/30 03:42:22;;;;;;;12.13;2.47;;;8.80;99.90;;;;;;5075987;28;20037;-87
2022/05/30 03:44:48;;;;;;;5.18;1.05;;;8.90;99.90;;;;;;5075709;28;20044;-87
2022/05/30 03:47:14;;;;;;;5.47;1.00;;;8.90;99.90;;;;;;5074345;28;20080;-88
2022/05/30 03:49:40;;;;;;;4.53;0.75;;;8.90;99.90;;;;;;5075799;28;20048;-87
2022/05/30 03:52:06;;;;;;;4.78;1.05;;;8.90;99.90;;;;;;5074265;28;20048;-87
2022/05/30 03:54:32;;;;;;;3.05;0.75;;;8.90;99.90;;;;;;5074522;28;20048;-87
2022/05/30 03:56:58;;;;;;;2.55;0.73;;;8.90;99.90;;;;;;5074463;28;20399;-86
2022/05/30 03:59:23;;;;;;;2.00;0.60;;;8.90;99.90;;;;;;5074475;28;20047;-86
2022/05/30 04:01:49;;;;;;;2.50;0.57;;;8.90;99.90;;;;;;5074027;28;20044;-86
2022/05/30 04:04:14;;;;;;;1.98;0.50;;;8.90;99.90;;;;;;5073998;28;20051;-87
2022/05/30 04:06:41;;;;;;;3.70;0.57;;;9.00;99.90;;;;;;5073836;28;20145;-88
2022/05/30 04:09:07;;;;;;;3.10;0.70;;;9.00;99.90;;;;;;5075439;28;20086;-86
2022/05/30 04:11:35;;;;;;;4.65;1.02;;;9.00;99.90;;;;;;5073935;28;20131;-87
2022/05/30 04:14:00;;;;;;;3.40;1.10;;;9.00;99.90;;;;;;5073887;28;20087;-87
2022/05/30 04:16:26;;;;;;;3.25;0.88;;;9.00;99.90;;;;;;5074097;28;20076;-87
2022/05/30 04:18:52;;;;;;;2.78;1.20;;;9.00;99.90;;;;;;5073800;28;20047;-88
2022/05/30 04:21:17;;;;;;;3.35;1.20;;;9.00;99.90;;;;;;5074011;28;20048;-87
2022/05/30 04:23:43;;;;;;;5.10;1.50;;;9.00;99.90;;;;;;5074027;28;20438;-87
2022/05/30 04:26:11;;;;;;;5.43;1.45;;;9.00;99.90;;;;;;5073646;28;20056;-88
2022/05/30 04:28:37;;;;;;;2.80;1.42;;;9.00;99.90;;;;;;5073631;28;20049;-87
2022/05/30 04:31:13;;;;;;;3.55;1.10;;;9.00;99.90;;;;;;5075121;28;20029;-84
2022/05/30 04:33:40;;;;;;;4.63;1.52;;;9.00;99.90;;;;;;5073775;28;20044;-85
2022/05/30 04:36:07;;;;;;;4.13;1.15;;;9.00;99.90;;;;;;5073532;28;20044;-85
2022/05/30 04:38:34;;;;;;;4.78;1.00;;;9.00;99.90;;;;;;5074600;28;20373;-85
2022/05/30 04:41:00;;;;;;;4.85;1.00;;;9.10;99.90;;;;;;5073591;28;20048;-85
2022/05/30 04:43:25;;;;;;;2.83;1.15;;;9.10;99.90;;;;;;5074844;28;20071;-84
2022/05/30 04:46:11;;;;;;;2.75;1.20;;;9.10;99.90;;;;;;5074691;28;20044;-84
2022/05/30 04:48:37;;;;;;;4.85;1.75;;;9.20;99.90;;;;;;5073517;28;20048;-85
2022/05/30 04:51:03;;;;;;;7.20;1.90;;;9.40;99.90;;;;;;5074627;28;20044;-84
2022/05/30 04:53:28;;;;;;;4.95;1.42;;;9.40;99.90;;;;;;5074607;28;20059;-85
2022/05/30 04:55:54;;;;;;;4.25;1.45;;;9.40;99.90;;;;;;5073413;28;20377;-87
2022/05/30 04:58:19;;;;;;;5.95;1.20;;;9.40;99.90;;;;;;5074409;28;20392;-87
2022/05/30 05:00:45;;;;;;;4.80;1.65;;;9.40;99.90;;;;;;5073061;28;20442;-88
2022/05/30 05:03:11;;;;;;;3.55;1.30;;;9.50;99.90;;;;;;5074390;28;20040;-89
2022/05/30 05:05:36;;;;;;;4.70;1.38;;;9.50;99.90;;;;;;5073791;28;20052;-88
2022/05/30 05:08:14;;;;;;;4.20;1.17;;;9.50;99.90;;;;;;5072859;28;20535;-88
2022/05/30 05:10:45;;;;;;;4.45;0.90;;;9.50;99.90;;;;;;5073051;28;20044;-88
2022/05/30 05:13:10;;;;;;;3.03;0.80;;;9.50;99.90;;;;;;5072907;28;20059;-87
2022/05/30 05:15:36;;;;;;;3.05;1.23;;;9.50;99.90;;;;;;5073748;28;20033;-87
2022/05/30 05:18:02;;;;;;;4.00;1.10;;;9.50;99.90;;;;;;5073952;28;20400;-87
2022/05/30 05:20:29;;;;;;;3.97;1.20;;;9.50;99.90;;;;;;5072569;28;20048;-88
2022/05/30 05:22:55;;;;;;;5.03;1.42;;;9.50;99.90;;;;;;5074098;28;20076;-88
2022/05/30 05:25:20;;;;;;;4.75;1.83;;;9.50;99.90;;;;;;5073843;28;20506;-89
2022/05/30 05:27:50;;;;;;;7.32;1.63;;;9.60;99.90;;;;;;5073995;28;20127;-91
2022/05/30 05:30:15;;;;;;;4.68;1.45;;;9.50;99.90;;;;;;5073878;28;20044;-90
2022/05/30 05:32:41;;;;;;;4.85;1.65;;;9.50;99.90;;;;;;5072810;28;20123;-90
2022/05/30 05:35:07;;;;;;;5.05;1.50;;;9.40;99.90;;;;;;5073906;28;20438;-89
2022/05/30 05:37:33;;;;;;;2.92;1.17;;;9.30;99.90;;;;;;5072661;28;20106;-89
2022/05/30 05:39:59;;;;;;;4.00;1.52;;;9.40;99.90;;;;;;5072336;28;20090;-89
2022/05/30 05:42:25;;;;;;;3.83;1.42;;;9.40;99.90;;;;;;5072386;28;20044;-89
2022/05/30 05:44:50;;;;;;;4.95;1.20;;;9.40;99.90;;;;;;5073802;28;20036;-88
2022/05/30 05:47:16;;;;;;;5.00;1.55;;;9.40;99.90;;;;;;5073609;28;20411;-87
2022/05/30 05:49:42;;;;;;;3.63;1.70;;;9.30;99.90;;;;;;5072502;28;20048;-87
2022/05/30 05:52:07;;;;;;;4.57;1.50;;;9.40;99.90;;;;;;5072207;28;20053;-88
2022/05/30 05:54:33;;;;;;;4.43;1.60;;;9.50;99.90;;;;;;5072275;28;20045;-88
2022/05/30 05:56:59;;;;;;;3.50;1.50;;;9.50;99.90;;;;;;5072395;28;20047;-88
2022/05/30 05:59:25;;;;;;;7.00;1.98;;;9.70;99.90;;;;;;5073630;28;20441;-87
2022/05/30 06:01:50;;;;;;;6.15;1.48;;;9.80;99.90;;;;;;5072050;28;20048;-86
2022/05/30 06:04:16;;;;;;;7.13;1.52;;;9.90;99.90;;;;;;5072381;28;20089;-87
2022/05/30 06:06:43;;;;;;;4.00;1.65;;;10.00;99.90;;;;;;5073114;28;20064;-86
2022/05/30 06:09:09;;;;;;;4.50;1.60;;;10.10;99.90;;;;;;5072223;28;20053;-86
2022/05/30 06:11:35;;;;;;;9.90;1.90;;;10.30;99.90;;;;;;5072096;28;20453;-86
2022/05/30 06:14:00;;;;;;;3.67;1.50;;;10.60;99.90;;;;;;5073226;28;20044;-86
2022/05/30 06:16:30;;;;;;;4.07;1.55;;;10.70;99.90;;;;;;5072240;28;20047;-86
2022/05/30 06:18:57;;;;;;;3.75;1.38;;;10.70;99.90;;;;;;5073227;28;20048;-85
2022/05/30 06:21:25;;;;;;;4.40;1.10;;;10.80;99.90;;;;;;5072263;28;20068;-86
2022/05/30 06:23:55;;;;;;;3.38;0.90;;;10.80;99.90;;;;;;5072168;28;20059;-85
2022/05/30 06:26:21;;;;;;;3.53;1.00;;;10.90;99.90;;;;;;5071802;28;20051;-84
2022/05/30 06:28:48;;;;;;;2.40;1.00;;;10.90;99.90;;;;;;5075965;28;20094;-86
2022/05/30 06:31:19;;;;;;;4.93;1.00;;;11.00;99.90;;;;;;5077130;28;20051;-86
2022/05/30 06:33:45;;;;;;;1.92;0.77;;;11.10;99.90;;;;;;5075815;28;20044;-86
2022/05/30 06:36:14;;;;;;;5.15;1.00;;;11.10;99.90;;;;;;5077271;28;20127;-84
2022/05/30 06:38:40;;;;;;;5.05;0.82;;;11.30;99.90;;;;;;5075728;28;20048;-85
2022/05/30 06:41:12;;;;;;;3.15;1.10;;;11.40;99.90;;;;;;5075675;28;20056;-91
2022/05/30 06:43:37;;;;;;;3.95;1.02;;;11.60;99.90;;;;;;5075833;28;20053;-86
2022/05/30 06:46:03;;;;;;;4.30;1.08;;;11.60;99.90;;;;;;5075527;28;20041;-85
2022/05/30 06:48:29;;;;;;;1.77;0.80;;;11.60;99.90;;;;;;5068479;28;20141;-85
2022/05/30 06:50:55;;;;;;;4.72;0.88;;;11.40;99.90;;;;;;5059786;28;20037;-84
2022/05/30 06:53:20;;;;;;;4.35;0.88;;;11.40;99.90;;;;;;5055178;28;20060;-83
2022/05/30 06:55:50;;;;;;;6.30;0.90;;;11.30;99.90;;;;;;5055540;28;20041;-83
2022/05/30 06:58:16;;;;;;;4.20;1.52;;;11.30;99.90;;;;;;5056278;28;20056;-86
2022/05/30 07:00:46;;;;;;;2.78;1.10;;;11.40;99.90;;;;;;5055417;28;20095;-85
2022/05/30 07:03:14;;;;;;;3.47;1.00;;;11.40;99.90;;;;;;5056361;28;20040;-85
2022/05/30 07:05:42;;;;;;;4.93;1.38;;;11.40;99.90;;;;;;5054999;28;20094;-84
2022/05/30 07:08:08;;;;;;;3.20;1.10;;;11.30;99.90;;;;;;5055020;28;20049;-83
2022/05/30 07:10:37;;;;;;;2.72;1.10;;;11.60;99.90;;;;;;5056477;28;20037;-84
2022/05/30 07:13:04;;;;;;;2.10;1.02;;;11.80;99.90;;;;;;5055182;28;20124;-84
2022/05/30 07:15:31;;;;;;;3.72;1.35;;;11.80;99.90;;;;;;5056314;28;20044;-83
2022/05/30 07:17:57;;;;;;;3.78;1.10;;;11.80;99.90;;;;;;5056428;28;20045;-85
2022/05/30 07:20:23;;;;;;;4.75;1.42;;;12.20;99.90;;;;;;5055060;28;20049;-85
2022/05/30 07:22:49;;;;;;;5.78;1.58;;;12.30;99.90;;;;;;5056311;28;20406;-85
2022/05/30 07:25:14;;;;;;;3.65;1.25;;;12.70;99.90;;;;;;5055851;28;20474;-84
2022/05/30 07:27:40;;;;;;;6.22;1.58;;;12.90;99.90;;;;;;5054668;28;20049;-84
2022/05/30 07:30:07;;;;;;;2.38;1.02;;;13.20;99.90;;;;;;5054579;28;20040;-84
2022/05/30 07:32:33;;;;;;;3.70;1.38;;;13.40;99.90;;;;;;5054879;28;20072;-84
2022/05/30 07:35:00;;;;;;;7.25;1.45;;;13.60;99.90;;;;;;5058316;28;20112;-84
2022/05/30 07:37:25;;;;;;;6.95;1.25;;;13.50;99.90;;;;;;5063324;28;20049;-85
2022/05/30 07:39:51;;;;;;;5.25;1.20;;;13.50;99.90;;;;;;5053779;28;20037;-84
2022/05/30 07:42:17;;;;;;;3.10;1.08;;;13.20;99.90;;;;;;5054693;28;20055;-84
2022/05/30 07:44:42;;;;;;;3.22;1.05;;;13.50;99.90;;;;;;5054386;28;20049;-85
2022/05/30 07:47:08;;;;;;;1.67;0.88;;;13.50;99.90;;;;;;5054293;28;20064;-85
2022/05/30 07:49:35;;;;;;;3.80;1.05;;;13.60;99.90;;;;;;5054307;28;20052;-84
2022/05/30 07:52:00;;;;;;;3.95;1.05;;;13.80;99.90;;;;;;5055589;28;20048;-84
2022/05/30 07:54:26;;;;;;;2.42;0.80;;;14.10;99.90;;;;;;5054152;28;20037;-84
2022/05/30 07:56:52;;;;;;;4.10;1.30;;;14.40;99.90;;;;;;5054884;28;20045;-85
2022/05/30 07:59:17;;;;;;;3.65;0.88;;;14.40;99.90;;;;;;5055684;28;20179;-84
2022/05/30 08:01:43;;;;;;;2.75;0.63;;;14.20;99.90;;;;;;5054220;28;20052;-85
2022/05/30 08:04:13;;;;;;;3.10;0.80;;;14.40;99.90;;;;;;5055192;28;20044;-85
2022/05/30 08:06:39;;;;;;;3.10;1.13;;;14.40;99.90;;;;;;5066131;28;20135;-85
2022/05/30 08:09:05;;;;;;;4.43;0.85;;;14.60;99.90;;;;;;5055350;28;20057;-84
2022/05/30 08:11:31;;;;;;;3.05;0.82;;;14.80;99.90;;;;;;5053975;28;20044;-86
2022/05/30 08:13:57;;;;;;;3.63;1.20;;;15.00;99.90;;;;;;5055358;28;20102;-84
2022/05/30 08:16:25;;;;;;;5.07;0.88;;;15.20;99.90;;;;;;5063139;28;20045;-84
2022/05/30 08:18:51;;;;;;;5.63;0.70;;;15.40;99.90;;;;;;5056669;28;20048;-85
2022/05/30 08:21:17;;;;;;;1.77;0.82;;;15.40;99.90;;;;;;5054773;28;20041;-86
2022/05/30 08:23:43;;;;;;;2.78;0.80;;;15.30;99.90;;;;;;5054821;28;20079;-86
2022/05/30 08:26:09;;;;;;;7.18;1.10;;;14.70;99.90;;;;;;5053596;28;20374;-87
2022/05/30 08:28:35;;;;;;;5.15;0.95;;;14.20;99.90;;;;;;5055085;28;20037;-87
2022/05/30 08:31:01;;;;;;;3.17;0.88;;;13.90;99.90;;;;;;5054995;28;20033;-86
2022/05/30 08:33:27;;;;;;;5.13;1.15;;;13.60;99.90;;;;;;5054666;28;20052;-86
2022/05/30 08:36:08;;;;;;;2.75;0.95;;;13.50;99.90;;;;;;5059026;28;20040;-86
2022/05/30 08:38:37;;;;;;;3.22;0.77;;;13.40;99.90;;;;;;5058186;28;20041;-87
2022/05/30 08:43:52;;;;;;;5.15;1.10;;;13.00;99.90;;;;;;5068210;28;20048;-86
2022/05/30 08:46:33;;;;;;;5.70;1.10;;;12.80;99.90;;;;;;5087049;28;20040;-85
2022/05/30 08:49:18;;;;;;;5.00;0.82;;;12.70;99.90;;;;;;5074620;28;20047;-87
2022/05/30 08:52:21;;;;;;;4.00;1.08;;;12.60;99.90;;;;;;5072504;28;20552;-89
2022/05/30 08:55:12;;;;;;;2.70;0.80;;;12.40;99.90;;;;;;5073238;28;20067;-90
2022/05/30 08:58:01;;;;;;;2.92;0.68;;;12.30;99.90;;;;;;5072946;28;20056;-90
2022/05/30 09:00:41;;;;;;;2.42;0.70;;;12.40;99.90;;;;;;5074498;28;20116;-90
2022/05/30 09:03:17;;;;;;;2.92;1.15;;;12.40;99.90;;;;;;5073525;28;20044;-88
2022/05/30 09:05:59;;;;;;;6.68;0.90;;;12.40;99.90;;;;;;5070669;28;20064;-88
2022/05/30 09:08:43;;;;;;;4.57;1.00;;;12.40;99.90;;;;;;5072214;28;20049;-88
2022/05/30 09:11:35;;;;;;;5.57;0.90;;;12.40;99.90;;;;;;5072335;28;20047;-90
2022/05/30 09:14:09;;;;;;;4.27;1.17;;;12.50;99.90;;;;;;5069187;28;20080;-90
2022/05/30 09:16:38;;;;;;;5.72;1.20;;;12.60;99.90;;;;;;5072621;28;20048;-88
2022/05/30 09:19:08;;;;;;;4.55;1.58;;;12.60;99.90;;;;;;5073613;28;20037;-85
2022/05/30 09:21:36;;;;;;;7.22;2.03;;;12.70;99.90;;;;;;5073787;28;20056;-86
2022/05/30 09:24:02;;;;;;;4.30;1.33;;;12.80;99.90;;;;;;5073604;28;20033;-86
2022/05/30 09:26:33;;;;;;;6.53;1.35;;;12.80;99.90;;;;;;5072189;28;20041;-87
2022/05/30 09:29:24;;;;;;;4.15;1.13;;;13.00;99.90;;;;;;5072002;28;20056;-89
2022/05/30 09:31:56;;;;;;;3.72;1.08;;;12.90;99.90;;;;;;5072596;28;20059;-86
2022/05/30 09:34:36;;;;;;;5.90;1.40;;;12.70;99.90;;;;;;5072403;28;20391;-87
2022/05/30 09:37:02;;;;;;;2.05;1.08;;;12.70;99.90;;;;;;5073232;28;20044;-84
2022/05/30 09:39:27;;;;;;;5.28;1.30;;;12.60;99.90;;;;;;5073507;28;20040;-84
2022/05/30 09:41:56;;;;;;;10.07;1.67;;;12.60;99.90;;;;;;5073289;28;20047;-84
2022/05/30 09:44:25;;;;;;;6.57;1.48;;;12.60;99.90;;;;;;5071907;28;20045;-84
2022/05/30 09:46:50;;;;;;;3.83;1.30;;;12.60;99.90;;;;;;5071925;28;20044;-86
2022/05/30 09:49:22;;;;;;;5.57;1.23;;;12.60;99.90;;;;;;5073110;28;20044;-87
2022/05/30 09:52:03;;;;;;;4.82;0.90;;;12.60;99.90;;;;;;5073076;28;20101;-85
2022/05/30 09:54:28;;;;;;;3.97;1.60;;;12.70;99.90;;;;;;5072118;28;20063;-85
2022/05/30 09:57:19;;;;;;;4.38;0.70;;;12.80;99.90;;;;;;5072888;28;20044;-85
2022/05/30 09:59:47;;;;;;;4.28;0.80;;;13.00;99.90;;;;;;5071877;28;20055;-84
2022/05/30 10:02:35;;;;;;;6.05;1.20;;;13.10;99.90;;;;;;5072024;28;20036;-86
2022/05/30 10:05:03;;;;;;;1.52;0.43;;;13.20;99.90;;;;;;5073114;28;20136;-83
2022/05/30 10:07:32;;;;;;;3.03;0.50;;;13.30;99.90;;;;;;5072653;28;20048;-85
2022/05/30 10:10:19;;;;;;;1.65;0.60;;;13.40;99.90;;;;;;5072912;28;20478;-87
2022/05/30 10:13:05;;;;;;;2.28;0.57;;;13.40;99.90;;;;;;5073248;28;20094;-86
2022/05/30 10:15:41;;;;;;;3.17;0.60;;;13.60;99.90;;;;;;5073019;28;20079;-85
2022/05/30 10:18:16;;;;;;;4.00;0.70;;;13.60;99.90;;;;;;5071873;28;20132;-82
2022/05/30 10:21:06;;;;;;;4.40;0.50;;;13.70;99.90;;;;;;5071768;28;20050;-85
2022/05/30 10:29:48;;;;;;;2.20;0.60;;;14.40;99.90;;;;;;5072162;28;20175;-85
2022/05/30 10:32:31;;;;;;;3.83;0.60;;;14.40;99.90;;;;;;5071484;28;20127;-85
2022/05/30 10:35:14;;;;;;;5.95;0.77;;;14.70;99.90;;;;;;5071691;28;20048;-85
2022/05/30 10:37:52;;;;;;;1.95;0.50;;;14.70;99.90;;;;;;5071977;28;20067;-86
2022/05/30 10:40:23;;;;;;;1.90;0.43;;;14.70;99.90;;;;;;5072743;28;20063;-81
2022/05/30 10:43:13;;;;;;;5.43;0.60;;;14.70;99.90;;;;;;5072979;28;20043;-83
2022/05/30 10:45:52;;;;;;;3.80;0.40;;;14.80;99.90;;;;;;5072835;28;20098;-86
2022/05/30 10:48:34;;;;;;;2.22;0.60;;;15.00;99.90;;;;;;5071775;28;20063;-85
2022/05/30 10:51:29;;;;;;;1.58;0.63;;;15.20;99.90;;;;;;5071527;28;20039;-85
2022/05/30 10:54:11;;;;;;;2.97;0.60;;;15.20;99.90;;;;;;5073080;28;20040;-88
2022/05/30 10:56:44;;;;;;;4.23;0.87;;;15.30;99.90;;;;;;5088623;28;20080;-88
2022/05/30 10:59:24;;;;;;;5.22;0.57;;;15.40;99.90;;;;;;5071634;28;20113;-87
2022/05/30 11:02:25;;;;;;;2.65;0.98;;;15.60;99.90;;;;;;5071448;28;20042;-89
2022/05/30 11:04:52;;;;;;;4.22;0.90;;;15.40;99.90;;;;;;5058647;28;20060;-86
2022/05/30 11:07:44;;;;;;;6.45;1.05;;;15.20;99.90;;;;;;5072336;28;20072;-85
2022/05/30 11:10:43;;;;;;;3.58;0.80;;;15.20;99.90;;;;;;5071212;28;20067;-86
2022/05/30 11:13:27;;;;;;;6.10;0.80;;;15.20;99.90;;;;;;5072528;28;20044;-85
2022/05/30 11:16:00;;;;;;;3.67;0.77;;;14.90;99.90;;;;;;5074974;28;20136;-88
2022/05/30 11:19:03;;;;;;;1.40;0.50;;;14.80;99.90;;;;;;5074904;28;20044;-88
2022/05/30 11:21:39;;;;;;;3.38;0.75;;;15.10;99.90;;;;;;5075125;28;20060;-89
2022/05/30 11:24:06;;;;;;;5.25;1.00;;;15.40;99.90;;;;;;5075045;28;20060;-90
2022/05/30 11:26:55;;;;;;;2.10;0.70;;;15.50;99.90;;;;;;5075823;28;20551;-88
2022/05/30 11:29:52;;;;;;;3.60;1.00;;;15.70;99.90;;;;;;5084985;28;20064;-87
2022/05/30 11:32:17;;;;;;;5.15;1.80;;;15.70;99.90;;;;;;5074650;28;20084;-88
2022/05/30 11:35:02;;;;;;;2.60;1.20;;;15.20;99.90;;;;;;5074564;28;20071;-87
2022/05/30 11:37:44;;;;;;;3.70;1.20;;;14.80;99.90;;;;;;5091658;28;20043;-85
2022/05/30 11:40:46;;;;;;;6.65;1.17;;;14.60;99.90;;;;;;5074432;28;20041;-86
2022/05/30 11:43:40;;;;;;;4.87;1.10;;;14.70;99.90;;;;;;5074559;28;20044;-87
2022/05/30 11:46:08;;;;;;;;;;;14.40;99.90;;;;;;5091607;28;20286;-84
2022/05/30 11:48:49;;;;;;;5.18;1.52;;;14.20;99.90;;;;;;5075736;28;19921;-84
2022/05/30 11:51:42;;;;;;;2.90;1.38;;;14.10;99.90;;;;;;5075568;28;20052;-84
2022/05/30 11:54:17;;;;;;;2.88;1.10;;;14.10;99.90;;;;;;5091079;28;20041;-88
2022/05/30 11:56:55;;;;;;;5.85;1.00;;;14.10;99.90;;;;;;5074167;28;20052;-86
2022/05/30 11:59:56;;;;;;;4.32;0.95;;;14.30;99.90;;;;;;5074356;28;20123;-86
2022/05/30 12:02:44;;;;;;;5.30;0.68;;;14.20;99.90;;;;;;5066795;28;20060;-88
2022/05/30 12:05:25;;;;;;;3.67;1.20;;;14.30;99.90;;;;;;5090737;28;20129;-88
2022/05/30 12:08:14;;;;;;;5.25;0.70;;;14.40;99.90;;;;;;5073774;28;20473;-86
2022/05/30 12:11:10;;;;;;;2.55;0.82;;;14.40;99.90;;;;;;5073837;28;20036;-88
2022/05/30 12:13:59;;;;;;;2.63;1.05;;;14.40;99.90;;;;;;5090737;28;20439;-88
2022/05/30 12:16:30;;;;;;;1.70;0.80;;;14.50;99.90;;;;;;5075309;28;20123;-86
2022/05/30 12:24:40;;;;;;;2.60;0.70;;;15.00;99.90;;;;;;5073627;28;20075;-87
2022/05/30 12:27:06;;;;;;;3.42;0.70;;;15.00;99.90;;;;;;5074728;28;20127;-89
2022/05/30 12:29:37;;;;;;;2.10;0.60;;;15.10;99.90;;;;;;5073304;28;20174;-90
2022/05/30 12:32:32;;;;;;;2.28;0.80;;;15.00;99.90;;;;;;5075020;28;20119;-88
2022/05/30 12:34:58;;;;;;;3.45;0.75;;;15.20;99.90;;;;;;5073684;28;20507;-86
2022/05/30 12:37:52;;;;;;;2.15;0.70;;;15.20;99.90;;;;;;5071571;28;20056;-86
2022/05/30 12:40:26;;;;;;;4.03;1.15;;;15.30;99.90;;;;;;5063973;28;20057;-87
2022/05/30 12:43:07;;;;;;;2.53;1.10;;;15.20;99.90;;;;;;5053578;28;20052;-87
2022/05/30 12:45:41;;;;;;;5.40;1.00;;;15.30;99.90;;;;;;5053171;28;20033;-86
2022/05/30 12:48:31;;;;;;;4.20;0.90;;;15.40;99.90;;;;;;5053015;28;20052;-86
2022/05/30 12:51:01;;;;;;;7.03;1.27;;;15.50;99.90;;;;;;5053358;28;20473;-87
2022/05/30 12:54:01;;;;;;;3.42;0.80;;;15.60;99.90;;;;;;5054636;28;20048;-85
2022/05/30 12:56:39;;;;;;;4.72;0.77;;;15.40;99.90;;;;;;5052864;28;20049;-85
2022/05/30 12:59:25;;;;;;;1.42;0.60;;;15.20;99.90;;;;;;5054442;28;20056;-85
2022/05/30 13:01:53;;;;;;;4.03;1.00;;;15.10;99.90;;;;;;5070734;28;20174;-86
2022/05/30 13:04:21;;;;;;;5.07;1.10;;;15.00;99.90;;;;;;5073093;28;20048;-85
2022/05/30 13:06:53;;;;;;;8.10;1.55;;;14.90;99.90;;;;;;5072510;28;20115;-86
2022/05/30 13:09:35;;;;;;;4.50;0.98;;;15.00;99.90;;;;;;5066235;28;20107;-85
2022/05/30 13:12:07;;;;;;;6.53;1.45;;;14.90;99.90;;;;;;5052717;28;20055;-85
2022/05/30 13:14:51;;;;;;;7.30;0.82;;;14.90;99.90;;;;;;5054307;28;20057;-85
2022/05/30 13:17:19;;;;;;;3.75;0.73;;;14.90;99.90;;;;;;5070306;28;20117;-85
2022/05/30 13:20:03;;;;;;;5.38;1.10;;;14.90;99.90;;;;;;5063485;28;20053;-85
2022/05/30 13:22:42;;;;;;;6.32;1.40;;;15.00;99.90;;;;;;5052493;28;20052;-85
2022/05/30 13:25:19;;;;;;;5.20;1.50;;;15.10;99.90;;;;;;5053343;28;20117;-85
2022/05/30 13:27:47;;;;;;;4.10;1.08;;;15.20;99.90;;;;;;5051208;28;20127;-87
2022/05/30 13:30:24;;;;;;;6.75;1.27;;;15.60;99.90;;;;;;5052032;28;20052;-87
2022/05/30 13:32:51;;;;;;;7.40;1.00;;;15.80;99.90;;;;;;5054030;28;20044;-90
2022/05/30 13:35:18;;;;;;;5.32;1.00;;;15.90;99.90;;;;;;5054713;28;20551;-88
2022/05/30 13:37:54;;;;;;;4.93;1.10;;;15.60;99.90;;;;;;5052381;28;20045;-89
2022/05/30 13:40:25;;;;;;;4.00;1.10;;;15.70;99.90;;;;;;5052831;28;20551;-84